Time;durP1;ratioP1;P1;durP2;ratioP2;P2;SDS_P1;SDS_P2;PMS_P1;PMS_P2;Temp;Humidity;BMP_temperature;BMP_pressure;BME280_temperature;BME280_humidity;BME280_pressure;Samples;Min_cycle;Max_cycle;Signal;HPM_P1;HPM_P2
2023/04/29 00:00:47;;;;;;;5.65;2.53;;;8.80;99.90;;;;;;4970551;28;20070;-81
2023/04/29 00:03:12;;;;;;;2.05;1.75;;;9.60;99.90;;;;;;4970125;28;20080;-82
2023/04/29 00:05:39;;;;;;;1.45;1.35;;;8.80;99.90;;;;;;4970709;28;20153;-81
2023/04/29 00:08:05;;;;;;;1.08;1.00;;;8.70;99.90;;;;;;4973492;28;20206;-82
2023/04/29 00:10:30;;;;;;;2.60;2.25;;;8.70;99.90;;;;;;4974211;28;20081;-81
2023/04/29 00:12:56;;;;;;;2.50;1.70;;;8.70;99.90;;;;;;4973163;28;20051;-81
2023/04/29 00:15:22;;;;;;;3.05;2.83;;;8.70;99.90;;;;;;4973477;28;20031;-81
2023/04/29 00:17:48;;;;;;;4.65;2.25;;;8.70;99.90;;;;;;4972900;28;20054;-81
2023/04/29 00:20:13;;;;;;;1.48;1.08;;;8.70;99.90;;;;;;4973054;28;20067;-81
2023/04/29 00:22:39;;;;;;;4.30;1.23;;;8.70;99.90;;;;;;4973013;28;20047;-81
2023/04/29 00:25:06;;;;;;;0.98;0.98;;;8.70;99.90;;;;;;4973990;28;20124;-83
2023/04/29 00:27:32;;;;;;;2.92;2.22;;;8.70;99.90;;;;;;4974868;28;20988;-82
2023/04/29 00:29:57;;;;;;;3.83;3.33;;;8.70;99.90;;;;;;4974759;28;20042;-80
2023/04/29 00:32:23;;;;;;;1.77;1.10;;;8.70;99.90;;;;;;4974262;28;20047;-81
2023/04/29 00:34:49;;;;;;;1.88;1.67;;;8.60;99.90;;;;;;4975070;28;20042;-82
2023/04/29 00:37:15;;;;;;;3.63;3.22;;;9.90;99.90;;;;;;4974321;28;20046;-81
2023/04/29 00:39:41;;;;;;;1.63;1.52;;;8.60;99.90;;;;;;4974641;28;20047;-81
2023/04/29 00:42:08;;;;;;;7.28;3.00;;;8.60;99.90;;;;;;4974185;28;20377;-81
2023/04/29 00:44:34;;;;;;;4.38;3.05;;;8.60;99.90;;;;;;4974535;28;20061;-81
2023/04/29 00:46:59;;;;;;;1.92;1.02;;;8.60;99.90;;;;;;4972514;28;20122;-81
2023/04/29 00:49:26;;;;;;;2.30;2.10;;;8.60;99.90;;;;;;4973621;28;20051;-81
2023/04/29 00:51:54;;;;;;;4.60;3.13;;;8.60;99.90;;;;;;4973839;28;20063;-81
2023/04/29 00:54:20;;;;;;;1.45;1.35;;;8.50;99.90;;;;;;4973716;28;20047;-81
2023/04/29 00:56:48;;;;;;;1.30;1.08;;;8.50;99.90;;;;;;4974536;28;20039;-82
2023/04/29 00:59:15;;;;;;;2.30;2.00;;;8.50;99.90;;;;;;4973680;28;20073;-81
2023/04/29 01:01:41;;;;;;;2.55;2.35;;;8.50;99.90;;;;;;4973805;28;20123;-82
2023/04/29 01:04:07;;;;;;;7.72;2.55;;;8.50;99.90;;;;;;4973820;28;20145;-82
2023/04/29 01:06:40;;;;;;;3.53;2.47;;;8.50;99.90;;;;;;4974304;28;20116;-81
2023/04/29 01:09:32;;;;;;;3.17;2.45;;;8.50;99.90;;;;;;4973056;28;20549;-81
2023/04/29 01:12:17;;;;;;;3.75;2.30;;;8.40;99.90;;;;;;4976532;28;20528;-81
2023/04/29 01:14:48;;;;;;;1.52;1.42;;;8.40;99.90;;;;;;4973552;28;20082;-81
2023/04/29 01:17:18;;;;;;;1.25;1.15;;;8.40;99.90;;;;;;4972937;28;20051;-81
2023/04/29 01:19:49;;;;;;;1.60;1.45;;;8.40;99.90;;;;;;4956077;28;20073;-81
2023/04/29 01:22:16;;;;;;;2.03;1.83;;;8.40;99.90;;;;;;4973776;28;20054;-81
2023/04/29 01:24:42;;;;;;;1.40;1.27;;;8.50;99.90;;;;;;4973415;28;20440;-81
2023/04/29 01:27:32;;;;;;;6.93;2.08;;;8.40;99.90;;;;;;4973023;28;20058;-80
2023/04/29 01:30:28;;;;;;;1.30;1.20;;;8.40;99.90;;;;;;4973028;28;20046;-81
2023/04/29 01:33:16;;;;;;;2.13;1.33;;;8.40;99.90;;;;;;4973086;28;20070;-81
2023/04/29 01:36:08;;;;;;;1.40;1.25;;;8.40;99.90;;;;;;4972300;28;20058;-81
2023/04/29 01:38:47;;;;;;;2.33;2.13;;;8.40;99.90;;;;;;4972177;28;20142;-81
2023/04/29 01:41:25;;;;;;;1.15;0.95;;;8.90;99.90;;;;;;4973468;28;20386;-81
2023/04/29 01:43:53;;;;;;;3.72;2.17;;;8.30;99.90;;;;;;4972420;28;20845;-81
2023/04/29 01:46:19;;;;;;;0.90;0.90;;;8.30;99.90;;;;;;4973050;28;20404;-81
2023/04/29 01:48:45;;;;;;;3.25;1.33;;;8.20;99.90;;;;;;4972375;28;20054;-81
2023/04/29 01:51:11;;;;;;;6.25;2.30;;;8.20;99.90;;;;;;4972431;28;20055;-81
2023/04/29 01:53:39;;;;;;;6.35;3.42;;;8.20;99.90;;;;;;4972494;28;20055;-81
2023/04/29 01:56:06;;;;;;;0.47;0.47;;;8.20;99.90;;;;;;4971519;28;20055;-81
2023/04/29 01:58:32;;;;;;;2.38;2.05;;;8.20;99.90;;;;;;4972146;28;20057;-81
2023/04/29 02:00:57;;;;;;;1.45;1.35;;;8.20;99.90;;;;;;4973139;28;20047;-81
2023/04/29 02:03:23;;;;;;;1.08;1.00;;;8.20;99.90;;;;;;4970412;28;20043;-81
2023/04/29 02:05:49;;;;;;;0.93;0.65;;;8.20;99.90;;;;;;4972716;28;20039;-81
2023/04/29 02:08:16;;;;;;;0.88;0.85;;;8.20;99.90;;;;;;4970378;28;20588;-82
2023/04/29 02:10:50;;;;;;;10.43;1.13;;;8.20;99.90;;;;;;4971918;28;20389;-81
2023/04/29 02:13:15;;;;;;;2.40;1.80;;;8.20;99.90;;;;;;4972375;28;20051;-81
2023/04/29 02:15:41;;;;;;;3.40;0.60;;;8.20;99.90;;;;;;4972911;28;20054;-81
2023/04/29 02:18:06;;;;;;;4.22;2.83;;;8.10;99.90;;;;;;4972784;28;20043;-81
2023/04/29 02:20:32;;;;;;;4.05;1.95;;;8.10;99.90;;;;;;4972424;28;20279;-81
2023/04/29 02:22:58;;;;;;;0.68;0.68;;;8.10;99.90;;;;;;4971951;28;20070;-80
2023/04/29 02:25:24;;;;;;;0.45;0.45;;;8.10;99.90;;;;;;4971881;28;20051;-81
2023/04/29 02:27:50;;;;;;;4.55;2.53;;;8.00;99.90;;;;;;4971701;28;20051;-81
2023/04/29 02:30:16;;;;;;;3.00;2.38;;;8.00;99.90;;;;;;4970629;28;20081;-81
2023/04/29 02:32:41;;;;;;;1.00;0.95;;;8.00;99.90;;;;;;4971318;28;20046;-81
2023/04/29 02:35:07;;;;;;;4.03;2.10;;;8.00;99.90;;;;;;4971248;28;20082;-81
2023/04/29 02:37:33;;;;;;;2.00;1.67;;;7.90;99.90;;;;;;4971853;28;20054;-81
2023/04/29 02:40:00;;;;;;;0.93;0.90;;;7.80;99.90;;;;;;4971064;28;20051;-81
2023/04/29 02:42:26;;;;;;;4.13;3.03;;;7.80;99.90;;;;;;4971750;28;20098;-81
2023/04/29 02:44:51;;;;;;;0.80;0.80;;;7.80;99.90;;;;;;4960913;28;20078;-81
2023/04/29 02:47:17;;;;;;;3.90;1.33;;;8.40;99.90;;;;;;4952669;28;20571;-81
2023/04/29 02:49:43;;;;;;;3.20;1.17;;;7.80;99.90;;;;;;4967405;28;20038;-82
2023/04/29 02:52:08;;;;;;;2.40;2.20;;;7.70;99.90;;;;;;4970632;28;20046;-82
2023/04/29 02:54:35;;;;;;;1.30;0.88;;;7.70;99.90;;;;;;4970841;28;20077;-81
2023/04/29 02:57:00;;;;;;;3.13;2.28;;;7.70;99.90;;;;;;4970883;28;20050;-81
2023/04/29 02:59:26;;;;;;;4.32;2.15;;;7.70;99.90;;;;;;4970601;28;20058;-81
2023/04/29 03:01:53;;;;;;;0.68;0.65;;;7.70;99.90;;;;;;4969380;28;20066;-81
2023/04/29 03:04:19;;;;;;;1.73;1.60;;;7.70;99.90;;;;;;4970872;28;20116;-81
2023/04/29 03:06:45;;;;;;;1.55;1.27;;;7.70;99.90;;;;;;4970022;28;20059;-80
2023/04/29 03:09:12;;;;;;;3.70;0.82;;;7.70;99.90;;;;;;4970448;28;20066;-81
2023/04/29 03:11:37;;;;;;;1.38;1.27;;;7.70;99.90;;;;;;4970291;28;20080;-82
2023/04/29 03:14:03;;;;;;;2.17;1.73;;;7.70;99.90;;;;;;4970655;28;20054;-81
2023/04/29 03:16:30;;;;;;;1.83;1.73;;;7.70;99.90;;;;;;4970739;28;20054;-81
2023/04/29 03:18:56;;;;;;;0.77;0.70;;;7.70;99.90;;;;;;4969747;28;20504;-81
2023/04/29 03:21:24;;;;;;;0.85;0.85;;;7.70;99.90;;;;;;4970667;28;20409;-81
2023/04/29 03:23:49;;;;;;;0.20;0.20;;;7.70;99.90;;;;;;4970392;28;20050;-82
2023/04/29 03:26:15;;;;;;;1.02;0.93;;;7.70;99.90;;;;;;4969924;28;20058;-81
2023/04/29 03:28:41;;;;;;;1.20;1.10;;;7.70;99.90;;;;;;4970465;28;20034;-81
2023/04/29 03:31:07;;;;;;;2.13;0.57;;;7.70;99.90;;;;;;4970206;28;20586;-82
2023/04/29 03:33:32;;;;;;;2.35;2.15;;;7.70;99.90;;;;;;4970388;28;20180;-80
2023/04/29 03:35:58;;;;;;;4.78;1.90;;;7.70;99.90;;;;;;4969876;28;20462;-81
2023/04/29 03:38:24;;;;;;;1.85;1.75;;;7.70;99.90;;;;;;4971865;28;20272;-81
2023/04/29 03:40:51;;;;;;;1.60;0.75;;;7.80;99.90;;;;;;4970379;28;20055;-81
2023/04/29 03:43:17;;;;;;;1.75;0.90;;;7.70;99.90;;;;;;4971112;28;20043;-81
2023/04/29 03:45:42;;;;;;;2.25;1.50;;;7.80;99.90;;;;;;4971592;28;20622;-81
2023/04/29 03:48:08;;;;;;;2.38;1.65;;;7.80;99.90;;;;;;4971013;28;20082;-81
2023/04/29 03:50:35;;;;;;;1.23;1.08;;;7.80;99.90;;;;;;4970834;28;20067;-80
2023/04/29 03:53:01;;;;;;;3.60;2.47;;;7.80;99.90;;;;;;4970981;28;20051;-81
2023/04/29 03:55:27;;;;;;;4.75;1.48;;;7.80;99.90;;;;;;4970671;28;20135;-80
2023/04/29 03:57:53;;;;;;;0.75;0.75;;;7.80;99.90;;;;;;4971418;28;20443;-81
2023/04/29 04:00:18;;;;;;;2.30;1.85;;;7.80;99.90;;;;;;4970874;28;20051;-81
2023/04/29 04:02:45;;;;;;;4.28;0.75;;;7.80;99.90;;;;;;4970584;28;20043;-81
2023/04/29 04:05:11;;;;;;;1.30;0.70;;;7.80;99.90;;;;;;4971344;28;20167;-82
2023/04/29 04:07:36;;;;;;;1.65;1.55;;;7.80;99.90;;;;;;4970937;28;20480;-82
2023/04/29 04:10:02;;;;;;;1.73;1.48;;;7.80;99.90;;;;;;4970897;28;20103;-80
2023/04/29 04:12:28;;;;;;;3.10;1.38;;;7.80;99.90;;;;;;4970925;28;20045;-81
2023/04/29 04:14:54;;;;;;;2.20;1.17;;;7.80;99.90;;;;;;4970232;28;20042;-81
2023/04/29 04:17:19;;;;;;;0.70;0.70;;;7.80;99.90;;;;;;4970303;28;20397;-81
2023/04/29 04:19:45;;;;;;;0.63;0.55;;;7.80;99.90;;;;;;4970491;28;20042;-80
2023/04/29 04:22:11;;;;;;;0.25;0.25;;;7.80;99.90;;;;;;4970960;28;20227;-81
2023/04/29 04:24:37;;;;;;;2.05;1.88;;;7.80;99.90;;;;;;4971074;28;20163;-81
2023/04/29 04:27:03;;;;;;;0.73;0.73;;;8.50;99.90;;;;;;4971413;28;20133;-81
2023/04/29 04:29:28;;;;;;;1.35;1.25;;;7.80;99.90;;;;;;4971185;28;20583;-81
2023/04/29 04:31:54;;;;;;;0.40;0.40;;;7.80;99.90;;;;;;4970943;28;20462;-81
2023/04/29 04:34:20;;;;;;;0.40;0.32;;;7.80;99.90;;;;;;4969854;28;20108;-81
2023/04/29 04:36:45;;;;;;;1.25;0.93;;;8.10;99.90;;;;;;4970397;28;20071;-80
2023/04/29 04:39:11;;;;;;;1.38;1.27;;;7.80;99.90;;;;;;4970183;28;20047;-81
2023/04/29 04:41:38;;;;;;;1.45;0.82;;;7.80;99.90;;;;;;4970338;28;20539;-81
2023/04/29 04:44:04;;;;;;;4.88;1.75;;;7.80;99.90;;;;;;4969655;28;20086;-80
2023/04/29 04:46:29;;;;;;;1.27;0.93;;;7.80;99.90;;;;;;4970212;28;20385;-81
2023/04/29 04:48:55;;;;;;;0.10;0.10;;;7.80;99.90;;;;;;4970166;28;20046;-81
2023/04/29 04:51:21;;;;;;;1.40;1.20;;;7.80;99.90;;;;;;4970924;28;20043;-81
2023/04/29 04:53:47;;;;;;;7.93;2.85;;;7.80;99.90;;;;;;4973009;28;20054;-82
2023/04/29 04:56:12;;;;;;;0.25;0.25;;;7.80;99.90;;;;;;4973789;28;20038;-81
2023/04/29 04:58:38;;;;;;;1.02;0.88;;;7.80;99.90;;;;;;4972355;28;20416;-81
2023/04/29 05:01:04;;;;;;;1.45;1.35;;;7.80;99.90;;;;;;4974024;28;20047;-81
2023/04/29 05:03:30;;;;;;;1.33;1.23;;;7.90;99.90;;;;;;4973464;28;20061;-81
2023/04/29 05:06:00;;;;;;;1.27;1.05;;;7.90;99.90;;;;;;4973465;28;20051;-81
2023/04/29 05:08:26;;;;;;;2.75;2.00;;;7.90;99.90;;;;;;4973070;28;20031;-81
2023/04/29 05:10:52;;;;;;;2.13;0.80;;;7.90;99.90;;;;;;4972902;28;20043;-81
2023/04/29 05:13:18;;;;;;;22.02;1.33;;;7.90;99.90;;;;;;4973762;28;20043;-81
2023/04/29 05:15:44;;;;;;;9.07;2.90;;;7.90;99.90;;;;;;4973700;28;20487;-81
2023/04/29 05:18:10;;;;;;;2.67;1.90;;;7.90;99.90;;;;;;4973954;28;20412;-81
2023/04/29 05:20:36;;;;;;;8.88;1.60;;;7.90;99.90;;;;;;4973188;28;20045;-81
2023/04/29 05:23:03;;;;;;;0.65;0.65;;;7.90;99.90;;;;;;4973448;28;20116;-81
2023/04/29 05:25:28;;;;;;;1.27;1.13;;;8.00;99.90;;;;;;4973511;28;20062;-81
2023/04/29 05:27:54;;;;;;;0.60;0.52;;;8.00;99.90;;;;;;4973842;28;20047;-80
2023/04/29 05:30:20;;;;;;;3.28;1.00;;;8.00;99.90;;;;;;4973254;28;20035;-81
2023/04/29 05:32:47;;;;;;;0.80;0.80;;;8.00;99.90;;;;;;4973851;28;20102;-81
2023/04/29 05:35:14;;;;;;;2.10;0.75;;;8.10;99.90;;;;;;4973292;28;20042;-81
2023/04/29 05:37:40;;;;;;;3.40;1.55;;;8.10;99.90;;;;;;4973584;28;20051;-81
2023/04/29 05:40:06;;;;;;;1.95;1.67;;;8.10;99.90;;;;;;4972169;28;20057;-80
2023/04/29 05:42:32;;;;;;;1.48;1.13;;;8.10;99.90;;;;;;4973354;28;20081;-80
2023/04/29 05:44:58;;;;;;;2.45;1.00;;;8.20;99.90;;;;;;4980817;28;20080;-81
2023/04/29 05:47:23;;;;;;;4.97;0.60;;;8.20;99.90;;;;;;4983387;28;20043;-81
2023/04/29 05:49:49;;;;;;;0.80;0.47;;;8.20;99.90;;;;;;4984250;28;20047;-81
2023/04/29 05:52:15;;;;;;;1.35;0.57;;;8.30;99.90;;;;;;4983631;28;20537;-81
2023/04/29 05:54:40;;;;;;;1.23;0.55;;;8.30;99.90;;;;;;4984192;28;20089;-80
2023/04/29 05:57:06;;;;;;;0.60;0.30;;;8.40;99.90;;;;;;4983638;28;20606;-81
2023/04/29 05:59:32;;;;;;;1.33;1.23;;;8.40;99.90;;;;;;4982795;28;20141;-82
2023/04/29 06:01:59;;;;;;;1.48;0.98;;;8.50;99.90;;;;;;4983554;28;20064;-81
2023/04/29 06:04:26;;;;;;;1.23;0.98;;;9.30;99.90;;;;;;4979638;28;20129;-81
2023/04/29 06:06:52;;;;;;;0.93;0.68;;;8.60;99.90;;;;;;4972815;28;20418;-80
2023/04/29 06:09:19;;;;;;;0.20;0.20;;;8.70;99.90;;;;;;4972013;28;20046;-80
2023/04/29 06:11:46;;;;;;;2.78;0.75;;;8.80;99.90;;;;;;4970610;28;20493;-81
2023/04/29 06:14:12;;;;;;;0.50;0.43;;;8.90;99.90;;;;;;4970568;28;20050;-81
2023/04/29 06:16:38;;;;;;;1.10;0.90;;;9.00;99.90;;;;;;4970437;28;20491;-81
2023/04/29 06:19:04;;;;;;;0.00;0.00;;;9.10;99.90;;;;;;4972096;28;20070;-80
2023/04/29 06:21:30;;;;;;;0.30;0.30;;;9.20;99.90;;;;;;4970038;28;20059;-81
2023/04/29 06:23:57;;;;;;;1.63;0.73;;;9.30;99.90;;;;;;4972144;28;20109;-81
2023/04/29 06:26:23;;;;;;;4.65;2.55;;;9.50;99.90;;;;;;4971671;28;20054;-80
2023/04/29 06:28:49;;;;;;;0.65;0.65;;;9.50;99.90;;;;;;4971908;28;20050;-81
2023/04/29 06:31:15;;;;;;;3.38;1.45;;;9.70;99.90;;;;;;4970986;28;20118;-80
2023/04/29 06:33:41;;;;;;;3.13;0.80;;;9.80;99.90;;;;;;4971273;28;20043;-81
2023/04/29 06:36:06;;;;;;;1.98;1.60;;;9.90;99.90;;;;;;4971494;28;20753;-80
2023/04/29 06:38:32;;;;;;;1.02;0.93;;;10.00;99.90;;;;;;4971945;28;20047;-81
2023/04/29 06:40:59;;;;;;;1.17;0.95;;;10.10;1.00;;;;;;4971038;28;20504;-81
2023/04/29 06:43:31;;;;;;;0.30;0.30;;;10.30;1.00;;;;;;4970998;28;20051;-81
2023/04/29 06:45:57;;;;;;;0.63;0.63;;;10.80;99.90;;;;;;4972030;28;20522;-81
2023/04/29 06:48:23;;;;;;;0.80;0.35;;;11.80;99.90;;;;;;4971068;28;20055;-81
2023/04/29 06:50:54;;;;;;;0.85;0.75;;;12.40;99.90;;;;;;4970656;28;20101;-81
2023/04/29 06:53:20;;;;;;;0.73;0.60;;;12.90;1.00;;;;;;4967563;28;20058;-81
2023/04/29 06:55:46;;;;;;;0.22;0.17;;;13.50;99.90;;;;;;4958973;28;20772;-80
2023/04/29 06:58:13;;;;;;;0.35;0.35;;;13.60;99.90;;;;;;4984700;28;20051;-80
2023/04/29 07:00:39;;;;;;;2.85;1.77;;;13.90;99.90;;;;;;4992731;28;20047;-81
2023/04/29 07:03:05;;;;;;;1.52;0.93;;;14.40;99.90;;;;;;4987088;28;20467;-82
2023/04/29 07:05:31;;;;;;;0.00;0.00;;;14.40;99.90;;;;;;4962560;28;20408;-81
2023/04/29 07:07:56;;;;;;;0.52;0.52;;;14.50;99.90;;;;;;4973760;28;20047;-82
2023/04/29 07:10:22;;;;;;;0.73;0.73;;;14.40;80.10;;;;;;4961359;28;20047;-81
2023/04/29 07:12:48;;;;;;;0.93;0.20;;;14.40;50.60;;;;;;4956886;28;20054;-81
2023/04/29 07:15:13;;;;;;;0.47;0.47;;;14.50;73.20;;;;;;4967615;28;20055;-81
2023/04/29 07:17:39;;;;;;;0.47;0.43;;;14.60;44.50;;;;;;4970436;28;20047;-82
2023/04/29 07:20:06;;;;;;;0.60;0.50;;;14.50;6.00;;;;;;4965493;28;20073;-82
2023/04/29 07:22:32;;;;;;;1.73;1.20;;;14.50;1.20;;;;;;4970330;28;20492;-82
2023/04/29 07:24:58;;;;;;;0.32;0.32;;;14.30;9.30;;;;;;4997339;28;20088;-83
2023/04/29 07:27:24;;;;;;;0.65;0.65;;;14.40;11.10;;;;;;4972794;28;20571;-83
2023/04/29 07:29:49;;;;;;;1.77;1.02;;;14.50;1.00;;;;;;5008039;28;20077;-82
2023/04/29 07:32:16;;;;;;;1.00;0.38;;;14.80;1.00;;;;;;4964755;28;20103;-82
2023/04/29 07:34:41;;;;;;;0.45;0.38;;;14.70;1.00;;;;;;4965322;28;20043;-83
2023/04/29 07:37:07;;;;;;;1.77;0.45;;;14.60;1.00;;;;;;4958595;28;20531;-82
2023/04/29 07:39:34;;;;;;;1.20;0.73;;;14.60;3.60;;;;;;4952523;28;20122;-82
2023/04/29 07:42:01;;;;;;;1.00;0.30;;;14.60;1.00;;;;;;4960020;28;20062;-82
2023/04/29 07:44:27;;;;;;;0.75;0.75;;;14.70;1.00;;;;;;4970555;28;20054;-81
2023/04/29 07:46:53;;;;;;;0.40;0.28;;;14.90;1.00;;;;;;4970203;28;20058;-82
2023/04/29 07:49:19;;;;;;;0.45;0.45;;;14.90;1.00;;;;;;4967155;28;20051;-82
2023/04/29 07:51:45;;;;;;;1.25;0.98;;;15.20;1.00;;;;;;4967810;28;20431;-82
2023/04/29 07:54:10;;;;;;;0.45;0.43;;;15.40;1.00;;;;;;4967936;28;20046;-82
2023/04/29 07:56:36;;;;;;;0.38;0.30;;;15.70;3.40;;;;;;4967289;28;20039;-82
2023/04/29 07:59:02;;;;;;;0.68;0.50;;;16.00;1.00;;;;;;4965351;28;20562;-83
2023/04/29 08:01:28;;;;;;;9.55;2.65;;;15.50;1.00;;;;;;4973711;28;20085;-81
2023/04/29 08:03:54;;;;;;;0.35;0.35;;;15.90;1.00;;;;;;4970521;28;20094;-82
2023/04/29 08:06:21;;;;;;;0.88;0.82;;;16.30;1.00;;;;;;4967064;28;20049;-82
2023/04/29 08:08:49;;;;;;;0.38;0.38;;;16.50;1.00;;;;;;5046649;28;20052;-82
2023/04/29 08:11:16;;;;;;;1.08;0.38;;;16.90;1.00;;;;;;5069841;28;20090;-82
2023/04/29 08:13:42;;;;;;;1.00;0.52;;;17.10;1.00;;;;;;5024936;28;20047;-82
2023/04/29 08:16:09;;;;;;;4.35;0.65;;;17.10;1.00;;;;;;4967029;28;20417;-82
2023/04/29 08:18:35;;;;;;;1.27;0.90;;;17.80;1.00;;;;;;4950873;28;20066;-82
2023/04/29 08:21:02;;;;;;;0.50;0.43;;;17.60;1.00;;;;;;4946146;28;20055;-82
2023/04/29 08:23:28;;;;;;;3.38;1.10;;;17.50;1.00;;;;;;4947931;28;20051;-82
2023/04/29 08:25:54;;;;;;;0.80;0.63;;;17.30;1.00;;;;;;4948420;28;20059;-82
2023/04/29 08:28:21;;;;;;;1.00;0.80;;;16.80;1.00;;;;;;4968554;28;20074;-82
2023/04/29 08:30:47;;;;;;;6.32;3.65;;;16.30;1.00;;;;;;4969836;28;20053;-82
2023/04/29 08:33:13;;;;;;;1.23;0.93;;;16.40;1.00;;;;;;4970418;28;20047;-82
2023/04/29 08:35:39;;;;;;;0.57;0.57;;;16.50;1.00;;;;;;4969399;28;20126;-82
2023/04/29 08:38:05;;;;;;;0.88;0.88;;;16.90;1.00;;;;;;4969378;28;20062;-82
2023/04/29 08:40:45;;;;;;;0.43;0.38;;;17.40;1.00;;;;;;4969778;28;20061;-82
2023/04/29 08:43:14;;;;;;;1.13;0.65;;;17.30;1.00;;;;;;4969913;28;20571;-82
2023/04/29 08:45:42;;;;;;;0.80;0.60;;;17.80;1.00;;;;;;4969782;28;20047;-82
2023/04/29 08:48:08;;;;;;;3.10;1.13;;;17.60;1.00;;;;;;4969461;28;20043;-82
2023/04/29 08:50:39;;;;;;;0.40;0.40;;;18.40;1.00;;;;;;4970623;28;20055;-82
2023/04/29 08:53:09;;;;;;;0.30;0.30;;;17.80;1.00;;;;;;4969656;28;20060;-82
2023/04/29 08:55:39;;;;;;;1.23;0.77;;;18.30;1.00;;;;;;4969703;28;20680;-82
2023/04/29 08:58:06;;;;;;;1.35;0.50;;;18.50;1.00;;;;;;4969891;28;20054;-82
2023/04/29 09:00:33;;;;;;;0.82;0.57;;;18.60;1.00;;;;;;4971140;28;20922;-82
2023/04/29 09:03:00;;;;;;;0.25;0.25;;;18.60;1.00;;;;;;4970999;28;20047;-82
2023/04/29 09:05:26;;;;;;;4.68;1.30;;;18.10;1.00;;;;;;4959682;28;20630;-82
2023/04/29 09:07:52;;;;;;;0.75;0.63;;;17.60;1.00;;;;;;4965054;28;20454;-82
2023/04/29 09:10:18;;;;;;;1.02;0.40;;;17.40;99.90;;;;;;4969184;28;20062;-84
2023/04/29 09:12:45;;;;;;;0.28;0.28;;;17.10;99.90;;;;;;4968736;28;20057;-80
2023/04/29 09:15:11;;;;;;;4.07;1.45;;;17.00;99.90;;;;;;4968613;28;20047;-80
2023/04/29 09:17:45;;;;;;;5.38;1.73;;;17.40;1.00;;;;;;4969692;28;20069;-80
2023/04/29 09:20:20;;;;;;;1.05;0.80;;;17.80;1.00;;;;;;4968662;28;20043;-80
2023/04/29 09:23:00;;;;;;;1.52;0.75;;;17.70;1.00;;;;;;4969864;28;20114;-80
2023/04/29 09:25:27;;;;;;;0.40;0.40;;;17.10;99.90;;;;;;4968511;28;20086;-80
2023/04/29 09:27:54;;;;;;;0.95;0.77;;;16.60;99.90;;;;;;4968790;28;20047;-81
2023/04/29 09:30:20;;;;;;;0.82;0.80;;;16.30;99.90;;;;;;4969300;28;20101;-80
2023/04/29 09:33:04;;;;;;;1.80;0.85;;;15.90;99.90;;;;;;4968408;28;20057;-80
2023/04/29 09:35:30;;;;;;;1.02;0.70;;;15.90;99.90;;;;;;4968676;28;20050;-80
2023/04/29 09:38:13;;;;;;;0.52;0.52;;;17.20;99.90;;;;;;4983131;28;20054;-80
2023/04/29 09:40:41;;;;;;;0.00;0.00;;;17.90;99.90;;;;;;4968084;28;20047;-80
2023/04/29 09:43:13;;;;;;;1.75;0.82;;;18.90;1.00;;;;;;4966649;28;20149;-80
2023/04/29 09:45:44;;;;;;;1.42;1.10;;;17.70;99.90;;;;;;4967061;28;20061;-80
2023/04/29 09:48:12;;;;;;;0.60;0.52;;;17.90;99.90;;;;;;4968210;28;20538;-81
2023/04/29 09:50:38;;;;;;;0.40;0.40;;;17.30;99.90;;;;;;4967947;28;20051;-79
2023/04/29 09:53:10;;;;;;;0.90;0.45;;;16.90;99.90;;;;;;4967189;28;20051;-80
2023/04/29 09:55:36;;;;;;;0.35;0.28;;;16.90;99.90;;;;;;4967127;28;20043;-80
2023/04/29 09:58:02;;;;;;;0.65;0.47;;;16.50;99.90;;;;;;4965849;28;20077;-79
2023/04/29 10:00:33;;;;;;;0.63;0.57;;;16.30;99.90;;;;;;4968539;28;20050;-80
2023/04/29 10:03:00;;;;;;;0.55;0.25;;;16.20;99.90;;;;;;4969520;28;20050;-80
2023/04/29 10:05:30;;;;;;;2.75;0.50;;;16.20;99.90;;;;;;4947613;28;20132;-80
2023/04/29 10:07:57;;;;;;;1.20;0.63;;;16.00;99.90;;;;;;4966790;28;20055;-80
2023/04/29 10:10:24;;;;;;;1.65;1.10;;;15.80;99.90;;;;;;4967216;28;21212;-80
2023/04/29 10:12:52;;;;;;;0.25;0.22;;;16.20;99.90;;;;;;4986582;28;20052;-80
2023/04/29 10:15:33;;;;;;;0.63;0.28;;;15.80;99.90;;;;;;4966643;28;20108;-81
2023/04/29 10:18:14;;;;;;;0.57;0.32;;;15.60;99.90;;;;;;4968508;28;20059;-79
2023/04/29 10:20:46;;;;;;;0.17;0.17;;;15.60;99.90;;;;;;4966659;28;20357;-80
2023/04/29 10:23:15;;;;;;;0.52;0.43;;;15.60;99.90;;;;;;4965710;28;20138;-80
2023/04/29 10:25:43;;;;;;;0.25;0.22;;;15.60;99.90;;;;;;4966856;28;20459;-80
2023/04/29 10:28:16;;;;;;;0.10;0.10;;;16.00;99.90;;;;;;4965983;28;20057;-80
2023/04/29 10:30:43;;;;;;;0.93;0.90;;;16.20;99.90;;;;;;4964775;28;20523;-80
2023/04/29 10:33:11;;;;;;;0.60;0.60;;;16.50;99.90;;;;;;4965261;28;20082;-80
2023/04/29 10:35:37;;;;;;;0.68;0.63;;;16.40;99.90;;;;;;4965964;28;20071;-80
2023/04/29 10:38:15;;;;;;;1.65;0.85;;;16.30;99.90;;;;;;4966100;28;20042;-80
2023/04/29 10:40:46;;;;;;;0.20;0.20;;;16.10;99.90;;;;;;4966648;28;20101;-80
2023/04/29 10:43:12;;;;;;;2.20;0.55;;;16.30;99.90;;;;;;4965237;28;20050;-80
2023/04/29 10:45:38;;;;;;;0.55;0.52;;;16.20;99.90;;;;;;4968103;28;20053;-80
2023/04/29 10:48:08;;;;;;;1.10;0.65;;;16.00;99.90;;;;;;4967128;28;20568;-80
2023/04/29 10:50:48;;;;;;;0.10;0.10;;;16.10;99.90;;;;;;4967383;28;20060;-80
2023/04/29 10:53:18;;;;;;;0.13;0.10;;;16.10;99.90;;;;;;4966767;28;20047;-80
2023/04/29 10:55:57;;;;;;;0.00;0.00;;;16.30;99.90;;;;;;4966778;28;20057;-80
2023/04/29 10:58:42;;;;;;;0.00;0.00;;;16.20;99.90;;;;;;4967096;28;20078;-80
2023/04/29 11:01:14;;;;;;;0.47;0.35;;;16.30;99.90;;;;;;4966947;28;20057;-80
2023/04/29 11:03:59;;;;;;;0.30;0.13;;;16.30;99.90;;;;;;4966295;28;20102;-80
2023/04/29 11:06:39;;;;;;;1.20;0.68;;;16.40;99.90;;;;;;4966680;28;20471;-80
2023/04/29 11:09:12;;;;;;;0.90;0.52;;;15.90;99.90;;;;;;4967174;28;20054;-80
2023/04/29 11:11:47;;;;;;;0.25;0.25;;;16.10;99.90;;;;;;4966523;28;20065;-80
2023/04/29 11:14:15;;;;;;;0.50;0.50;;;16.30;99.90;;;;;;4966184;28;20053;-80
2023/04/29 11:16:49;;;;;;;2.13;0.63;;;16.60;99.90;;;;;;4966910;28;20061;-80
2023/04/29 11:19:16;;;;;;;0.10;0.10;;;16.30;99.90;;;;;;4967984;28;20054;-80
2023/04/29 11:21:44;;;;;;;1.00;0.47;;;16.40;99.90;;;;;;4966255;28;20138;-80
2023/04/29 11:24:11;;;;;;;1.48;0.65;;;16.60;99.90;;;;;;4966942;28;20094;-80
2023/04/29 11:26:37;;;;;;;1.80;0.90;;;16.70;99.90;;;;;;4968169;28;20038;-81
2023/04/29 11:29:10;;;;;;;0.30;0.30;;;16.70;99.90;;;;;;4969147;28;20214;-81
2023/04/29 11:31:38;;;;;;;0.22;0.22;;;17.00;99.90;;;;;;4969744;28;20068;-81
2023/04/29 11:34:05;;;;;;;0.10;0.10;;;17.40;99.90;;;;;;5001118;28;20055;-81
2023/04/29 11:36:32;;;;;;;0.43;0.25;;;17.20;99.90;;;;;;4968806;28;20046;-81
2023/04/29 11:39:03;;;;;;;0.38;0.38;;;17.40;99.90;;;;;;4968980;28;20349;-81
2023/04/29 11:41:30;;;;;;;0.20;0.20;;;17.50;99.90;;;;;;4968359;28;20617;-81
2023/04/29 11:44:02;;;;;;;0.13;0.13;;;17.80;99.90;;;;;;4968787;28;20508;-81
2023/04/29 11:46:30;;;;;;;0.00;0.00;;;18.20;99.90;;;;;;4969093;28;20080;-81
2023/04/29 11:48:57;;;;;;;0.10;0.10;;;18.30;99.90;;;;;;4968533;28;20129;-81
2023/04/29 11:51:23;;;;;;;0.90;0.30;;;18.50;99.90;;;;;;4968411;28;20127;-81
2023/04/29 11:53:50;;;;;;;0.00;0.00;;;18.60;99.90;;;;;;4969193;28;20612;-81
2023/04/29 11:56:16;;;;;;;0.38;0.32;;;18.90;99.90;;;;;;4969761;28;20140;-81
2023/04/29 11:58:43;;;;;;;0.00;0.00;;;18.70;99.90;;;;;;4968963;28;20115;-81
2023/04/29 12:01:09;;;;;;;0.85;0.65;;;18.60;99.90;;;;;;4968495;28;20078;-81
2023/04/29 12:03:35;;;;;;;0.08;0.03;;;19.10;99.90;;;;;;4971885;28;20132;-81
2023/04/29 12:06:01;;;;;;;0.00;0.00;;;19.20;99.90;;;;;;4972081;28;20051;-81
2023/04/29 12:08:29;;;;;;;0.63;0.55;;;19.50;99.90;;;;;;4972373;28;20072;-81
2023/04/29 12:10:59;;;;;;;0.13;0.10;;;19.60;99.90;;;;;;4972463;28;20057;-81
2023/04/29 12:13:28;;;;;;;0.15;0.15;;;19.60;99.90;;;;;;4972260;28;20448;-81
2023/04/29 12:15:55;;;;;;;0.35;0.35;;;19.90;99.90;;;;;;4972058;28;20527;-81
2023/04/29 12:18:22;;;;;;;0.20;0.20;;;20.60;99.90;;;;;;4972110;28;20047;-81
2023/04/29 12:20:52;;;;;;;0.10;0.05;;;20.70;99.90;;;;;;4971356;28;20365;-81
2023/04/29 12:23:22;;;;;;;0.45;0.20;;;21.00;99.90;;;;;;4971254;28;20054;-81
2023/04/29 12:26:06;;;;;;;0.15;0.15;;;20.60;99.90;;;;;;4972050;28;20039;-81
2023/04/29 12:28:33;;;;;;;0.10;0.10;;;20.50;99.90;;;;;;4971517;28;20157;-81
2023/04/29 12:31:00;;;;;;;0.00;0.00;;;20.50;99.90;;;;;;4971793;28;20082;-81
2023/04/29 12:33:28;;;;;;;0.08;0.08;;;19.90;99.90;;;;;;4971969;28;20061;-81
2023/04/29 12:35:56;;;;;;;0.38;0.28;;;19.60;99.90;;;;;;4971763;28;20043;-81
2023/04/29 12:38:29;;;;;;;0.52;0.40;;;19.90;99.90;;;;;;4971698;28;20073;-81
2023/04/29 12:40:57;;;;;;;0.60;0.35;;;19.60;99.90;;;;;;4970945;28;20047;-81
2023/04/29 12:43:30;;;;;;;0.57;0.50;;;19.40;99.90;;;;;;4971541;28;20057;-81
2023/04/29 12:46:05;;;;;;;0.55;0.40;;;19.10;99.90;;;;;;4971539;28;20042;-81
2023/04/29 12:48:37;;;;;;;0.15;0.08;;;19.10;99.90;;;;;;4971477;28;20051;-81
2023/04/29 12:51:03;;;;;;;0.00;0.00;;;18.80;99.90;;;;;;4971418;28;20069;-81
2023/04/29 12:53:30;;;;;;;0.75;0.75;;;19.00;99.90;;;;;;4971666;28;20484;-81
2023/04/29 12:55:56;;;;;;;0.00;0.00;;;19.30;99.90;;;;;;4972358;28;20161;-81